Time;durP1;ratioP1;P1;durP2;ratioP2;P2;SDS_P1;SDS_P2;PMS_P1;PMS_P2;Temp;Humidity;BMP_temperature;BMP_pressure;BME280_temperature;BME280_humidity;BME280_pressure;Samples;Min_cycle;Max_cycle;Signal;HPM_P1;HPM_P2
2023/08/29 00:02:13;;;;;;;0.30;0.30;;;;;;;13.94;100.00;94532.97;4332922;32;20203;-66
2023/08/29 00:04:38;;;;;;;0.10;0.10;;;;;;;13.73;100.00;94544.53;4331164;32;20178;-65
2023/08/29 00:07:04;;;;;;;0.00;0.00;;;;;;;13.62;100.00;94542.63;4330581;32;20203;-66
2023/08/29 00:09:29;;;;;;;0.37;0.37;;;;;;;13.72;100.00;94553.63;4331810;32;20265;-65
2023/08/29 00:11:55;;;;;;;0.30;0.30;;;;;;;13.74;100.00;94558.63;4320293;32;20265;-66
2023/08/29 00:14:21;;;;;;;0.47;0.47;;;;;;;13.87;100.00;94565.53;4323080;32;20217;-66
2023/08/29 00:16:46;;;;;;;0.40;0.40;;;;;;;13.75;100.00;94563.62;4331816;32;20244;-66
2023/08/29 00:19:14;;;;;;;0.00;0.00;;;;;;;13.66;100.00;94560.31;4330854;32;20212;-66
2023/08/29 00:21:39;;;;;;;0.10;0.10;;;;;;;13.80;100.00;94562.62;4322651;32;20221;-66
2023/08/29 00:24:06;;;;;;;0.10;0.10;;;;;;;13.85;100.00;94566.97;4332119;32;20252;-65
2023/08/29 00:26:31;;;;;;;0.40;0.40;;;;;;;13.80;100.00;94567.19;4333377;32;20217;-66
2023/08/29 00:28:57;;;;;;;0.10;0.10;;;;;;;13.79;100.00;94558.41;4338916;32;20200;-65
2023/08/29 00:31:22;;;;;;;0.10;0.10;;;;;;;13.94;100.00;94546.31;4335318;32;20182;-65
2023/08/29 00:33:47;;;;;;;0.10;0.10;;;;;;;13.71;100.00;94551.31;4329478;32;20182;-66
2023/08/29 00:36:13;;;;;;;0.10;0.10;;;;;;;13.95;100.00;94550.53;4333283;32;20208;-66
2023/08/29 00:38:38;;;;;;;0.40;0.40;;;;;;;13.75;100.00;94555.62;4334044;32;20190;-65
2023/08/29 00:41:03;;;;;;;0.20;0.20;;;;;;;13.98;100.00;94555.97;4332238;32;20190;-66
2023/08/29 00:43:29;;;;;;;0.20;0.20;;;;;;;13.83;100.00;94553.97;4332944;32;20227;-66
2023/08/29 00:45:55;;;;;;;0.20;0.20;;;;;;;13.77;100.00;94548.09;4333432;32;20209;-66
2023/08/29 00:48:21;;;;;;;0.20;0.20;;;;;;;13.86;100.00;94545.31;4332898;32;20182;-66
2023/08/29 00:50:47;;;;;;;0.10;0.10;;;;;;;13.99;99.53;94540.75;4331302;32;20197;-66
2023/08/29 00:53:14;;;;;;;0.23;0.23;;;;;;;13.96;100.00;94539.53;4333411;32;20260;-66
2023/08/29 00:55:39;;;;;;;0.27;0.27;;;;;;;13.84;99.72;94541.44;4334451;32;20177;-66
2023/08/29 00:58:05;;;;;;;0.20;0.20;;;;;;;13.86;100.00;94539.22;4339336;32;20196;-66
2023/08/29 01:00:32;;;;;;;0.10;0.10;;;;;;;13.76;99.57;94549.19;4332546;32;20430;-66
2023/08/29 01:02:58;;;;;;;0.30;0.30;;;;;;;13.81;99.64;94548.19;4332871;32;20181;-65
2023/08/29 01:05:24;;;;;;;0.20;0.20;;;;;;;13.80;100.00;94540.53;4329309;32;20193;-66
2023/08/29 01:07:57;;;;;;;0.20;0.20;;;;;;;13.81;100.00;94547.44;4333243;32;20193;-66
2023/08/29 01:10:33;;;;;;;0.00;0.00;;;;;;;13.72;100.00;94542.97;4336304;32;20243;-65
2023/08/29 01:13:21;;;;;;;0.20;0.20;;;;;;;13.66;100.00;94538.97;4326068;32;20261;-65
2023/08/29 01:15:49;;;;;;;0.33;0.20;;;;;;;13.66;100.00;94530.97;4316717;32;20193;-66
2023/08/29 01:18:16;;;;;;;0.10;0.10;;;;;;;13.62;100.00;94532.75;4334320;32;20165;-66
2023/08/29 01:20:42;;;;;;;0.10;0.10;;;;;;;13.67;100.00;94529.09;4332808;32;20191;-66
2023/08/29 01:23:16;;;;;;;2.23;0.60;;;;;;;13.71;100.00;94530.78;4325742;32;20174;-65
2023/08/29 01:26:07;;;;;;;0.10;0.10;;;;;;;13.77;100.00;94529.41;4332319;32;20207;-66
2023/08/29 01:28:33;;;;;;;0.30;0.30;;;;;;;13.72;100.00;94532.31;4331961;32;21537;-65
2023/08/29 01:30:59;;;;;;;0.20;0.20;;;;;;;13.73;100.00;94528.53;4331346;32;20196;-65
2023/08/29 01:33:25;;;;;;;0.20;0.20;;;;;;;13.58;98.77;94539.84;4331008;32;20186;-66
2023/08/29 01:35:51;;;;;;;0.30;0.30;;;;;;;13.66;99.46;94536.31;4332201;32;20197;-65
2023/08/29 01:38:18;;;;;;;0.10;0.10;;;;;;;13.68;99.72;94542.09;4332725;32;20182;-66
2023/08/29 01:40:45;;;;;;;0.33;0.33;;;;;;;13.77;99.53;94539.31;4332245;32;20169;-66
2023/08/29 01:43:10;;;;;;;0.23;0.23;;;;;;;13.69;99.52;94543.66;4332349;32;20193;-66
2023/08/29 01:45:35;;;;;;;0.30;0.30;;;;;;;13.42;99.05;94538.94;4330770;32;20217;-66
2023/08/29 01:48:01;;;;;;;0.03;0.03;;;;;;;13.61;100.00;94531.19;4338050;32;20221;-66
2023/08/29 01:50:30;;;;;;;0.30;0.30;;;;;;;13.62;99.46;94548.75;4332313;32;20228;-65
2023/08/29 01:52:56;;;;;;;0.20;0.20;;;;;;;13.66;99.23;94538.97;4330362;32;20186;-66
2023/08/29 01:55:21;;;;;;;0.40;0.40;;;;;;;13.57;99.48;94548.94;4332869;32;20502;-66
2023/08/29 01:57:49;;;;;;;0.90;0.87;;;;;;;13.75;97.90;94552.97;4332683;32;20202;-66
2023/08/29 02:00:16;;;;;;;0.30;0.30;;;;;;;13.64;97.84;94548.41;4332158;32;20252;-65
2023/08/29 02:02:41;;;;;;;0.10;0.10;;;;;;;13.57;97.96;94553.50;4334085;32;20186;-66
2023/08/29 02:05:07;;;;;;;4.83;0.57;;;;;;;13.72;97.17;94552.84;4331845;32;20212;-66
2023/08/29 02:07:33;;;;;;;0.30;0.30;;;;;;;13.70;95.85;94547.88;4318617;32;20268;-65
2023/08/29 02:09:58;;;;;;;0.10;0.10;;;;;;;13.44;97.46;94547.38;4330598;32;20185;-66
2023/08/29 02:12:23;;;;;;;0.00;0.00;;;;;;;13.44;97.51;94551.94;4313609;32;20190;-66
2023/08/29 02:14:48;;;;;;;0.30;0.30;;;;;;;13.44;97.47;94554.59;4336893;32;20200;-66
2023/08/29 02:17:14;;;;;;;0.20;0.10;;;;;;;13.19;99.43;94543.87;4332162;32;20189;-66
2023/08/29 02:19:39;;;;;;;0.10;0.10;;;;;;;13.22;98.53;94556.53;4320374;32;20239;-66
2023/08/29 02:22:04;;;;;;;0.00;0.00;;;;;;;13.12;99.07;94546.25;4331543;32;20182;-66
2023/08/29 02:24:30;;;;;;;0.10;0.10;;;;;;;13.15;99.67;94556.28;4328201;32;20174;-65
2023/08/29 02:26:55;;;;;;;0.00;0.00;;;;;;;13.31;98.90;94556.44;4331737;32;20300;-66
2023/08/29 02:29:20;;;;;;;0.20;0.20;;;;;;;13.19;98.57;94551.06;4332183;32;20185;-66
2023/08/29 02:31:46;;;;;;;0.30;0.30;;;;;;;13.25;98.43;94549.78;4331532;32;20189;-66
2023/08/29 02:34:14;;;;;;;0.13;0.13;;;;;;;13.26;98.27;94548.66;4332503;32;20237;-66
2023/08/29 02:36:40;;;;;;;0.10;0.10;;;;;;;13.18;98.51;94554.84;4331401;32;20304;-66
2023/08/29 02:39:07;;;;;;;0.00;0.00;;;;;;;13.35;98.76;94550.13;4331648;32;20198;-65
2023/08/29 02:41:32;;;;;;;1.57;0.37;;;;;;;13.33;97.37;94552.34;4334288;32;20269;-65
2023/08/29 02:43:57;;;;;;;0.10;0.10;;;;;;;13.00;98.45;94549.66;4329809;32;20196;-66
2023/08/29 02:46:23;;;;;;;0.00;0.00;;;;;;;13.37;97.66;94552.47;4330676;32;20197;-66
2023/08/29 02:48:48;;;;;;;0.10;0.10;;;;;;;13.21;98.15;94557.63;4330852;32;20307;-65
2023/08/29 02:51:13;;;;;;;0.30;0.30;;;;;;;13.22;98.44;94553.88;4330526;32;20185;-66
2023/08/29 02:53:39;;;;;;;0.10;0.10;;;;;;;13.25;99.21;94550.56;4332942;32;20173;-66
2023/08/29 02:56:04;;;;;;;0.20;0.20;;;;;;;13.12;98.13;94550.78;4329860;32;20216;-65
2023/08/29 02:58:30;;;;;;;0.10;0.10;;;;;;;13.07;99.54;94549.13;4329140;32;20194;-65
2023/08/29 03:00:57;;;;;;;0.10;0.10;;;;;;;12.93;100.00;94546.72;4326739;32;20182;-65
2023/08/29 03:03:22;;;;;;;0.40;0.40;;;;;;;13.03;99.46;94551.66;4330354;32;20218;-65
2023/08/29 03:05:58;;;;;;;0.17;0.17;;;;;;;12.89;99.17;94545.81;4331484;32;20216;-66
2023/08/29 03:08:23;;;;;;;0.30;0.30;;;;;;;12.84;100.00;94543.37;4336469;32;20196;-66
2023/08/29 03:10:49;;;;;;;0.20;0.20;;;;;;;12.83;100.00;94549.81;4321370;32;20233;-65
2023/08/29 03:13:15;;;;;;;0.10;0.10;;;;;;;12.98;100.00;94546.53;4323321;32;20202;-66
2023/08/29 03:15:40;;;;;;;0.63;0.63;;;;;;;12.96;100.00;94546.09;4324564;32;20245;-66
2023/08/29 03:18:06;;;;;;;0.40;0.40;;;;;;;12.98;100.00;94541.22;4330648;32;20189;-66
2023/08/29 03:20:32;;;;;;;0.23;0.23;;;;;;;13.05;99.93;94544.13;4332103;32;20312;-66
2023/08/29 03:22:57;;;;;;;0.13;0.13;;;;;;;13.05;100.00;94538.81;4329761;32;20189;-65
2023/08/29 03:25:23;;;;;;;0.40;0.40;;;;;;;13.21;99.78;94533.66;4332851;32;20197;-66
2023/08/29 03:27:49;;;;;;;0.40;0.30;;;;;;;13.34;98.93;94537.13;4320821;32;20268;-65
2023/08/29 03:30:14;;;;;;;0.30;0.30;;;;;;;13.10;99.65;94535.13;4327030;32;20193;-66
2023/08/29 03:32:40;;;;;;;0.67;0.30;;;;;;;12.95;100.00;94539.19;4332633;32;20185;-66
2023/08/29 03:35:05;;;;;;;0.57;0.57;;;;;;;12.94;99.60;94539.53;4331092;32;20200;-66
2023/08/29 03:37:31;;;;;;;0.10;0.10;;;;;;;13.05;99.73;94536.16;4331088;32;20193;-65
2023/08/29 03:39:56;;;;;;;0.40;0.40;;;;;;;13.01;100.00;94535.25;4331237;32;20198;-65
2023/08/29 03:42:21;;;;;;;2.07;0.47;;;;;;;13.18;99.98;94536.19;4330376;32;20237;-66
2023/08/29 03:44:47;;;;;;;0.23;0.23;;;;;;;13.06;100.00;94537.69;4332844;32;20196;-66
2023/08/29 03:47:12;;;;;;;0.30;0.30;;;;;;;13.01;99.89;94529.91;4335776;32;20192;-66
2023/08/29 03:49:37;;;;;;;0.40;0.40;;;;;;;13.23;100.00;94533.34;4334456;32;20201;-66
2023/08/29 03:52:03;;;;;;;0.20;0.20;;;;;;;13.02;100.00;94536.03;4333725;32;20205;-66
2023/08/29 03:54:29;;;;;;;0.20;0.20;;;;;;;13.19;99.67;94537.75;4334100;32;20200;-66
2023/08/29 03:56:55;;;;;;;0.30;0.30;;;;;;;12.90;100.00;94539.41;4332890;32;20174;-66
2023/08/29 03:59:20;;;;;;;0.30;0.30;;;;;;;12.98;100.00;94543.87;4331209;32;20196;-66
2023/08/29 04:01:46;;;;;;;0.30;0.30;;;;;;;12.92;100.00;94547.84;4320012;32;20228;-66
2023/08/29 04:04:11;;;;;;;0.20;0.20;;;;;;;12.96;100.00;94540.75;4334084;33;20178;-66
2023/08/29 04:06:36;;;;;;;0.40;0.40;;;;;;;13.02;100.00;94542.13;4333805;32;20170;-66
2023/08/29 04:09:03;;;;;;;0.43;0.43;;;;;;;13.22;100.00;94539.78;4337983;32;20287;-66
2023/08/29 04:11:29;;;;;;;0.20;0.20;;;;;;;13.07;100.00;94533.16;4333418;32;20220;-66
2023/08/29 04:13:54;;;;;;;0.50;0.50;;;;;;;13.10;99.97;94540.47;4337682;32;20190;-65
2023/08/29 04:16:19;;;;;;;0.30;0.30;;;;;;;13.09;100.00;94546.94;4331672;32;20192;-66
2023/08/29 04:18:45;;;;;;;0.43;0.43;;;;;;;12.94;100.00;94553.63;4333726;32;20260;-65
2023/08/29 04:21:10;;;;;;;0.20;0.20;;;;;;;13.24;100.00;94542.88;4335786;33;20218;-66
2023/08/29 04:23:36;;;;;;;0.57;0.57;;;;;;;13.28;99.87;94543.78;4330028;32;20201;-65
2023/08/29 04:26:03;;;;;;;0.60;0.60;;;;;;;13.25;100.00;94541.78;4318055;32;20196;-66
2023/08/29 04:28:29;;;;;;;0.50;0.50;;;;;;;13.26;99.65;94546.00;4333261;32;20215;-66
2023/08/29 04:30:55;;;;;;;0.33;0.33;;;;;;;13.11;100.00;94551.91;4333263;32;20200;-65
2023/08/29 04:33:21;;;;;;;0.40;0.40;;;;;;;13.21;100.00;94551.53;4332184;32;20193;-65
2023/08/29 04:35:50;;;;;;;0.30;0.30;;;;;;;13.11;100.00;94543.91;4335463;32;20189;-66
2023/08/29 04:38:15;;;;;;;0.50;0.47;;;;;;;13.18;100.00;94549.53;4333711;32;20260;-66
2023/08/29 04:40:40;;;;;;;0.30;0.30;;;;;;;13.23;100.00;94547.44;4335374;32;20287;-66
2023/08/29 04:43:06;;;;;;;1.03;0.50;;;;;;;13.15;100.00;94550.13;4331824;32;20196;-65
2023/08/29 04:45:32;;;;;;;0.20;0.20;;;;;;;13.13;100.00;94547.03;4333134;32;20239;-66
2023/08/29 04:47:58;;;;;;;0.20;0.20;;;;;;;13.06;100.00;94544.91;4330985;32;20189;-67
2023/08/29 04:50:25;;;;;;;0.20;0.20;;;;;;;13.22;100.00;94542.44;4333418;32;20169;-65
2023/08/29 04:52:53;;;;;;;1.13;0.40;;;;;;;13.15;100.00;94537.63;4326578;32;20201;-66
2023/08/29 04:55:19;;;;;;;0.10;0.10;;;;;;;13.18;100.00;94536.97;4323229;32;20193;-66
2023/08/29 04:57:44;;;;;;;0.20;0.20;;;;;;;13.06;100.00;94532.38;4325037;32;20272;-66
2023/08/29 05:00:12;;;;;;;0.10;0.10;;;;;;;13.25;100.00;94533.78;4334861;32;20292;-65
2023/08/29 05:02:38;;;;;;;0.10;0.10;;;;;;;13.04;100.00;94531.94;4331648;32;20201;-65
2023/08/29 05:05:04;;;;;;;0.37;0.37;;;;;;;13.20;100.00;94537.44;4333149;32;20196;-65
2023/08/29 05:07:30;;;;;;;0.17;0.17;;;;;;;13.25;100.00;94539.13;4332849;32;20189;-66
2023/08/29 05:09:57;;;;;;;0.20;0.20;;;;;;;13.36;100.00;94534.91;4332875;32;20220;-66
2023/08/29 05:12:22;;;;;;;0.10;0.10;;;;;;;13.36;100.00;94541.03;4332326;33;20275;-65
2023/08/29 05:14:48;;;;;;;0.30;0.30;;;;;;;13.24;100.00;94542.88;4337414;32;20189;-66
2023/08/29 05:17:13;;;;;;;0.10;0.10;;;;;;;13.24;100.00;94540.22;4332935;32;20178;-66
2023/08/29 05:19:40;;;;;;;0.10;0.10;;;;;;;13.34;100.00;94543.22;4334108;32;20196;-65
2023/08/29 05:22:06;;;;;;;0.10;0.10;;;;;;;13.29;100.00;94538.13;4332553;32;20196;-66
2023/08/29 05:24:32;;;;;;;0.10;0.10;;;;;;;13.47;99.87;94540.62;4334525;32;20209;-66
2023/08/29 05:26:57;;;;;;;0.13;0.13;;;;;;;13.46;99.55;94547.81;4332581;32;20220;-65
2023/08/29 05:29:22;;;;;;;0.03;0.03;;;;;;;13.43;99.92;94550.38;4335233;32;20186;-66
2023/08/29 05:31:48;;;;;;;0.20;0.20;;;;;;;13.50;99.69;94545.28;4333709;32;20182;-66
2023/08/29 05:34:13;;;;;;;0.00;0.00;;;;;;;13.46;99.71;94549.72;4328362;32;20188;-66
2023/08/29 05:36:38;;;;;;;0.27;0.27;;;;;;;13.09;100.00;94549.59;4327767;32;20250;-66
2023/08/29 05:39:04;;;;;;;0.10;0.10;;;;;;;13.34;100.00;94545.13;4324356;32;20189;-66
2023/08/29 05:41:29;;;;;;;0.40;0.40;;;;;;;13.34;100.00;94545.13;4343687;32;20193;-66
2023/08/29 05:43:54;;;;;;;0.13;0.13;;;;;;;13.20;100.00;94550.75;4332192;32;20169;-66
2023/08/29 05:46:20;;;;;;;0.27;0.27;;;;;;;13.23;100.00;94546.66;4332006;32;20178;-65
2023/08/29 05:48:45;;;;;;;0.10;0.10;;;;;;;13.18;100.00;94552.19;4332234;32;20191;-66
2023/08/29 05:51:11;;;;;;;0.17;0.17;;;;;;;13.16;100.00;94547.19;4323079;32;20192;-66
2023/08/29 05:53:36;;;;;;;0.20;0.20;;;;;;;13.27;100.00;94552.88;4331338;32;20181;-65
2023/08/29 05:56:01;;;;;;;0.03;0.03;;;;;;;13.24;100.00;94556.97;4332198;32;20376;-65
2023/08/29 05:58:27;;;;;;;0.13;0.13;;;;;;;13.38;100.00;94559.34;4332021;32;20195;-66
2023/08/29 06:00:52;;;;;;;0.53;0.53;;;;;;;13.50;100.00;94559.37;4328579;32;20236;-65
2023/08/29 06:03:17;;;;;;;0.30;0.30;;;;;;;13.38;100.00;94559.34;4328132;32;20211;-65
2023/08/29 06:05:43;;;;;;;0.40;0.40;;;;;;;13.40;100.00;94565.13;4326109;32;20212;-66
2023/08/29 06:08:08;;;;;;;0.10;0.10;;;;;;;13.35;100.00;94562.66;4329198;32;20185;-65
2023/08/29 06:10:34;;;;;;;0.23;0.23;;;;;;;13.43;100.00;94564.47;4335386;32;20190;-65
2023/08/29 06:13:00;;;;;;;0.10;0.10;;;;;;;13.31;100.00;94569.75;4331990;33;20177;-65
2023/08/29 06:15:25;;;;;;;0.10;0.10;;;;;;;13.07;100.00;94571.22;4328349;32;20197;-66
2023/08/29 06:17:50;;;;;;;1.20;0.23;;;;;;;12.99;100.00;94574.72;4318645;32;20225;-65
2023/08/29 06:20:16;;;;;;;0.27;0.27;;;;;;;13.09;100.00;94578.88;4332004;32;20182;-65
2023/08/29 06:22:42;;;;;;;1.93;0.37;;;;;;;13.19;100.00;94583.03;4330142;32;20197;-65
2023/08/29 06:25:09;;;;;;;0.00;0.00;;;;;;;13.07;100.00;94581.87;4331780;32;20252;-66
2023/08/29 06:27:35;;;;;;;0.20;0.20;;;;;;;13.16;100.00;94581.03;4331773;32;20200;-65
2023/08/29 06:30:00;;;;;;;0.30;0.30;;;;;;;13.14;100.00;94578.66;4331819;32;20174;-65
2023/08/29 06:32:26;;;;;;;0.10;0.10;;;;;;;13.14;100.00;94577.88;4322432;32;20177;-65
2023/08/29 06:34:51;;;;;;;0.10;0.10;;;;;;;13.08;100.00;94586.09;4331666;32;20194;-66
2023/08/29 06:37:16;;;;;;;0.00;0.00;;;;;;;13.17;100.00;94582.59;4333156;32;20174;-66
2023/08/29 06:39:45;;;;;;;0.10;0.10;;;;;;;13.11;100.00;94586.50;4333143;32;20228;-66
2023/08/29 06:42:10;;;;;;;0.20;0.20;;;;;;;13.25;100.00;94587.06;4331493;32;20197;-66
2023/08/29 06:44:36;;;;;;;0.30;0.30;;;;;;;13.24;100.00;94601.47;4331940;32;20178;-65
2023/08/29 06:47:01;;;;;;;0.20;0.20;;;;;;;13.26;100.00;94604.59;4327770;32;20201;-65
2023/08/29 06:49:26;;;;;;;0.20;0.20;;;;;;;13.32;100.00;94613.94;4333409;32;20203;-65
2023/08/29 06:51:52;;;;;;;0.57;0.33;;;;;;;13.51;100.00;94611.53;4331863;32;20259;-65
2023/08/29 06:54:17;;;;;;;0.10;0.10;;;;;;;13.41;100.00;94606.66;4331429;32;20249;-65
2023/08/29 06:56:45;;;;;;;0.30;0.30;;;;;;;13.38;100.00;94612.63;4333749;32;20273;-65
2023/08/29 06:59:11;;;;;;;0.23;0.23;;;;;;;13.44;100.00;94606.00;4325906;32;20200;-65
2023/08/29 07:01:37;;;;;;;0.10;0.10;;;;;;;13.39;100.00;94611.53;4328823;32;20181;-65
2023/08/29 07:04:03;;;;;;;0.20;0.20;;;;;;;13.60;100.00;94609.59;4326509;32;20264;-65
2023/08/29 07:06:28;;;;;;;0.53;0.53;;;;;;;13.77;100.00;94604.06;4337795;32;20178;-65
2023/08/29 07:08:53;;;;;;;0.10;0.10;;;;;;;13.75;100.00;94608.94;4330304;32;20182;-66
2023/08/29 07:11:19;;;;;;;0.10;0.10;;;;;;;13.75;100.00;94608.94;4331201;32;20215;-65
2023/08/29 07:13:44;;;;;;;0.27;0.27;;;;;;;13.73;100.00;94613.03;4331074;32;20240;-65
2023/08/29 07:16:09;;;;;;;0.60;0.37;;;;;;;13.79;100.00;94605.63;4333477;32;20307;-65
2023/08/29 07:18:35;;;;;;;0.23;0.23;;;;;;;13.76;100.00;94610.50;4331056;32;20170;-65
2023/08/29 07:21:01;;;;;;;0.10;0.10;;;;;;;13.81;100.00;94614.06;4329443;32;20213;-65
2023/08/29 07:23:26;;;;;;;0.20;0.20;;;;;;;13.79;100.00;94618.94;4330586;32;20190;-65
2023/08/29 07:25:52;;;;;;;1.80;0.60;;;;;;;13.86;100.00;94629.88;4333259;32;20193;-65
2023/08/29 07:28:17;;;;;;;0.13;0.13;;;;;;;13.92;100.00;94632.00;4327161;32;20174;-66
2023/08/29 07:30:45;;;;;;;0.60;0.50;;;;;;;13.89;100.00;94623.88;4332210;32;20243;-66
2023/08/29 07:33:13;;;;;;;0.20;0.20;;;;;;;13.90;100.00;94636.09;4318402;33;20196;-65
2023/08/29 07:35:39;;;;;;;0.10;0.10;;;;;;;13.75;100.00;94630.28;4329511;32;20207;-65
2023/08/29 07:38:05;;;;;;;0.10;0.10;;;;;;;13.77;100.00;94632.63;4337091;32;20224;-65
2023/08/29 07:40:32;;;;;;;0.10;0.10;;;;;;;13.92;100.00;94634.66;4329295;32;20182;-66
2023/08/29 07:42:57;;;;;;;0.23;0.23;;;;;;;14.05;100.00;94624.78;4334122;32;20197;-66
2023/08/29 07:45:23;;;;;;;0.10;0.10;;;;;;;13.91;100.00;94630.44;4328624;32;20198;-66
2023/08/29 07:47:48;;;;;;;0.10;0.10;;;;;;;13.95;100.00;94633.97;4327476;32;20205;-65
2023/08/29 07:50:13;;;;;;;0.20;0.20;;;;;;;14.06;100.00;94631.69;4327654;32;20203;-66
2023/08/29 07:52:39;;;;;;;0.00;0.00;;;;;;;14.16;100.00;94625.88;4327621;32;20186;-66
2023/08/29 07:55:05;;;;;;;0.30;0.30;;;;;;;14.22;99.38;94627.22;4329743;32;20181;-66
2023/08/29 07:57:30;;;;;;;0.30;0.30;;;;;;;14.07;100.00;94625.22;4329688;32;20178;-66
2023/08/29 07:59:56;;;;;;;0.10;0.10;;;;;;;14.14;100.00;94633.44;4334118;32;20208;-66
2023/08/29 08:02:22;;;;;;;0.60;0.40;;;;;;;14.11;100.00;94626.13;4330472;32;20185;-65
2023/08/29 08:04:47;;;;;;;0.20;0.20;;;;;;;14.01;100.00;94624.66;4330696;32;20233;-65
2023/08/29 08:07:12;;;;;;;0.40;0.40;;;;;;;14.02;100.00;94623.56;4330503;32;20256;-66
2023/08/29 08:09:38;;;;;;;0.50;0.50;;;;;;;14.33;100.00;94636.38;4316399;32;20182;-65
2023/08/29 08:12:03;;;;;;;0.10;0.10;;;;;;;14.23;99.67;94634.13;4331143;32;20269;-65
2023/08/29 08:14:29;;;;;;;0.00;0.00;;;;;;;14.20;99.33;94642.78;4330773;32;20248;-66
2023/08/29 08:16:54;;;;;;;0.30;0.30;;;;;;;14.22;99.70;94642.47;4317734;32;20190;-66
2023/08/29 08:19:19;;;;;;;0.20;0.20;;;;;;;14.05;100.00;94646.12;4331275;32;20251;-66
2023/08/29 08:21:45;;;;;;;1.47;0.67;;;;;;;14.27;100.00;94648.38;4330762;32;20190;-66
2023/08/29 08:24:10;;;;;;;0.30;0.30;;;;;;;14.34;99.71;94645.16;4331139;32;20292;-66
2023/08/29 08:26:35;;;;;;;0.77;0.13;;;;;;;14.34;100.00;94643.25;4330428;32;20186;-65
2023/08/29 08:29:03;;;;;;;0.23;0.23;;;;;;;14.26;100.00;94646.81;4323679;32;20232;-66
2023/08/29 08:31:29;;;;;;;2.67;0.40;;;;;;;14.24;100.00;94648.25;4331960;32;20193;-65
2023/08/29 08:33:56;;;;;;;0.40;0.40;;;;;;;14.10;100.00;94638.69;4333689;32;20257;-66
2023/08/29 08:36:21;;;;;;;0.40;0.33;;;;;;;14.36;100.00;94651.69;4332941;32;20192;-65
2023/08/29 08:38:46;;;;;;;0.10;0.10;;;;;;;14.46;99.41;94655.84;4345034;32;20241;-66
2023/08/29 08:41:12;;;;;;;0.00;0.00;;;;;;;14.28;100.00;94660.59;4335230;32;20220;-66
2023/08/29 08:43:39;;;;;;;0.47;0.47;;;;;;;14.26;99.88;94664.72;4333264;32;20256;-66
2023/08/29 08:46:05;;;;;;;0.00;0.00;;;;;;;14.21;100.00;94664.91;4318752;32;20248;-66
2023/08/29 08:48:30;;;;;;;0.00;0.00;;;;;;;14.34;99.66;94669.91;4331856;32;20189;-66
2023/08/29 08:50:57;;;;;;;0.10;0.10;;;;;;;14.38;98.29;94670.81;4329422;32;20175;-66
2023/08/29 08:53:24;;;;;;;0.50;0.10;;;;;;;14.34;98.48;94683.25;4322809;32;20200;-66
2023/08/29 08:55:50;;;;;;;0.20;0.20;;;;;;;14.34;98.75;94680.59;4338748;32;20186;-66
2023/08/29 08:58:16;;;;;;;0.27;0.27;;;;;;;14.26;99.13;94686.84;4330952;32;20178;-66
2023/08/29 09:00:42;;;;;;;0.10;0.10;;;;;;;14.42;98.77;94682.41;4334597;32;20197;-66
2023/08/29 09:03:07;;;;;;;0.20;0.10;;;;;;;14.45;100.00;94686.31;4333118;32;20200;-67
2023/08/29 09:05:33;;;;;;;0.30;0.30;;;;;;;14.37;99.21;94690.59;4332787;32;20261;-66
2023/08/29 09:07:59;;;;;;;1.93;0.30;;;;;;;14.37;99.75;94689.81;4332301;32;20240;-66
2023/08/29 09:10:24;;;;;;;0.00;0.00;;;;;;;14.31;100.00;94691.19;4332787;32;20299;-66
2023/08/29 09:12:51;;;;;;;1.03;0.30;;;;;;;14.44;99.75;94688.22;4333500;32;20178;-66
2023/08/29 09:15:19;;;;;;;0.13;0.13;;;;;;;14.37;100.00;94695.16;4331739;32;20198;-66
2023/08/29 09:17:53;;;;;;;0.13;0.13;;;;;;;14.34;99.87;94691.28;4333032;32;20197;-66
2023/08/29 09:20:19;;;;;;;0.77;0.40;;;;;;;14.53;99.79;94687.34;4332812;32;20193;-66
2023/08/29 09:22:46;;;;;;;0.37;0.00;;;;;;;14.64;98.38;94688.44;4332215;32;20190;-66
2023/08/29 09:25:12;;;;;;;1.27;0.27;;;;;;;14.56;98.31;94694.66;4341477;32;20202;-66
2023/08/29 09:27:47;;;;;;;0.00;0.00;;;;;;;14.50;97.95;94686.09;4332867;32;20204;-66
2023/08/29 09:30:17;;;;;;;1.10;0.33;;;;;;;14.37;98.15;94689.81;4316619;33;20228;-66
2023/08/29 09:32:44;;;;;;;1.10;0.27;;;;;;;14.48;99.26;94684.88;4319388;33;20182;-66
2023/08/29 09:35:15;;;;;;;0.10;0.10;;;;;;;14.30;100.00;94684.28;4327120;32;20178;-66
2023/08/29 09:37:45;;;;;;;0.20;0.20;;;;;;;14.14;100.00;94683.34;4319855;33;20181;-66
2023/08/29 09:40:14;;;;;;;0.00;0.00;;;;;;;14.00;100.00;94687.09;4332072;32;20212;-66
2023/08/29 09:42:40;;;;;;;0.30;0.30;;;;;;;14.23;100.00;94690.16;4332362;32;20186;-66
2023/08/29 09:45:07;;;;;;;0.10;0.10;;;;;;;14.31;100.00;94683.94;4332587;32;20177;-66
2023/08/29 09:47:32;;;;;;;0.10;0.10;;;;;;;14.42;100.00;94690.44;4336933;32;20197;-66
2023/08/29 09:49:57;;;;;;;0.37;0.37;;;;;;;14.42;100.00;94693.09;4330335;32;20186;-66
2023/08/29 09:52:24;;;;;;;0.20;0.20;;;;;;;14.55;100.00;94690.44;4338352;32;20296;-66
2023/08/29 09:54:51;;;;;;;0.20;0.20;;;;;;;14.71;100.00;94694.00;4332638;32;20216;-66
2023/08/29 09:57:19;;;;;;;0.30;0.30;;;;;;;14.67;100.00;94688.56;4332343;33;20223;-66
2023/08/29 09:59:46;;;;;;;0.10;0.10;;;;;;;14.72;100.00;94695.56;4332115;32;20204;-66
2023/08/29 10:02:13;;;;;;;0.00;0.00;;;;;;;14.77;100.00;94692.66;4334286;32;20220;-66
2023/08/29 10:04:44;;;;;;;0.00;0.00;;;;;;;14.84;100.00;94681.41;4329288;32;20178;-66
2023/08/29 10:07:15;;;;;;;0.20;0.20;;;;;;;14.91;100.00;94701.13;4320907;32;20186;-66
2023/08/29 10:09:42;;;;;;;0.10;0.10;;;;;;;15.04;99.17;94694.63;4333248;32;20197;-66
2023/08/29 10:12:09;;;;;;;0.13;0.13;;;;;;;15.11;99.02;94686.84;4331374;32;20203;-66
2023/08/29 10:14:36;;;;;;;0.17;0.17;;;;;;;15.25;99.06;94691.03;4341161;32;20206;-66
2023/08/29 10:17:02;;;;;;;0.03;0.03;;;;;;;15.15;98.95;94699.53;4331907;32;20190;-66
2023/08/29 10:19:29;;;;;;;0.10;0.10;;;;;;;15.11;98.68;94694.84;4331471;32;20220;-65
2023/08/29 10:21:55;;;;;;;0.10;0.10;;;;;;;15.06;98.13;94696.97;4335891;32;20305;-66
2023/08/29 10:24:22;;;;;;;0.10;0.10;;;;;;;15.08;98.25;94697.41;4326608;32;20186;-66
2023/08/29 10:26:49;;;;;;;0.20;0.20;;;;;;;15.11;98.02;94702.88;4311267;32;20212;-66
2023/08/29 10:29:15;;;;;;;0.20;0.20;;;;;;;15.09;96.10;94698.97;4328409;32;20241;-66
2023/08/29 10:31:42;;;;;;;0.00;0.00;;;;;;;15.05;95.88;94701.53;4337028;32;20196;-66
2023/08/29 10:34:08;;;;;;;0.20;0.20;;;;;;;14.90;96.39;94696.87;4331271;32;20244;-66
2023/08/29 10:36:37;;;;;;;0.00;0.00;;;;;;;14.88;97.13;94698.31;4331165;32;20347;-66
2023/08/29 10:39:03;;;;;;;0.10;0.10;;;;;;;14.79;97.34;94696.53;4331546;32;20193;-66
2023/08/29 10:41:43;;;;;;;0.17;0.17;;;;;;;14.91;96.82;94701.13;4339593;32;20244;-66
2023/08/29 10:44:31;;;;;;;0.20;0.20;;;;;;;14.99;97.92;94699.41;4330481;32;20249;-66
2023/08/29 10:47:48;;;;;;;0.00;0.00;;;;;;;15.01;97.49;94703.31;4318271;33;20185;-66
2023/08/29 10:50:16;;;;;;;0.60;0.20;;;;;;;14.80;97.30;94702.66;4313833;32;20226;-66
2023/08/29 10:52:42;;;;;;;0.00;0.00;;;;;;;14.83;99.15;94704.66;4330844;32;20449;-66
2023/08/29 10:55:22;;;;;;;0.00;0.00;;;;;;;14.80;100.00;94708.00;4330783;32;20228;-66
2023/08/29 10:57:48;;;;;;;0.00;0.00;;;;;;;14.96;99.01;94705.47;4329651;32;20188;-66
2023/08/29 11:00:33;;;;;;;0.07;0.07;;;;;;;14.91;100.00;94698.44;4329690;32;20267;-66
2023/08/29 11:02:59;;;;;;;0.10;0.10;;;;;;;14.91;100.00;94705.66;4331203;32;20186;-66
2023/08/29 11:05:25;;;;;;;0.17;0.17;;;;;;;14.93;99.80;94698.09;4331153;32;20182;-66
2023/08/29 11:07:50;;;;;;;0.10;0.10;;;;;;;15.00;99.40;94695.63;4327230;32;20181;-66
2023/08/29 11:10:20;;;;;;;0.23;0.23;;;;;;;14.97;99.57;94702.41;4320711;32;20204;-66
2023/08/29 11:13:07;;;;;;;0.13;0.13;;;;;;;14.99;99.08;94691.41;4321642;32;20193;-66
2023/08/29 11:15:51;;;;;;;0.97;0.20;;;;;;;15.21;97.93;94688.25;4336665;32;20211;-66
2023/08/29 11:18:30;;;;;;;0.13;0.13;;;;;;;15.12;97.58;94676.94;4327871;32;20250;-67
2023/08/29 11:20:56;;;;;;;0.10;0.10;;;;;;;15.20;97.85;94688.56;4330829;32;20242;-67
2023/08/29 11:23:22;;;;;;;0.50;0.50;;;;;;;15.27;95.85;94678.09;4326223;32;20182;-67
2023/08/29 11:25:51;;;;;;;0.67;0.67;;;;;;;15.18;96.84;94672.09;4329248;32;20182;-67
2023/08/29 11:28:17;;;;;;;0.80;0.80;;;;;;;15.34;96.40;94667.63;4331384;32;20234;-67